메인 페이지
METAR-TAF:

METAR-TAF

공항 :

벤구리온 국제공항

텔아비브 / 벤구리온, 이스라엘

위도: 32-00N, 경도: 034-54E, 고도: 40m

현재 날씨관측

예보는 25분 전, 08:50시(UTC)에 발표되었습니다.
14kt
온도 19°C
습도 78%
기압 1014 hPa
시정 10km 이상
고도 1400ft 상공 구름 조금
고도 3200ft 상공 구름 보통

METAR: LLBG 090850Z 18014KT 9999 FEW014 SCT032 19/15 Q1014 TEMPO 7000 SHRA FEW025TCU BKN030

시각: 11:15 (09:15 UTC)

예보

예보는 4 시간 8분 전, 05:07시(UTC)에 발표되었습니다.
예보 대상 시간: 09일 06시부터 10일 06시까지 (UTC)
12kt
시정 10km 이상
고도 3000ft 상공 구름 보통
일시적
09일 06시부터 09일 13시까지 (UTC)
서남서12kt, 순간 최대 풍속 22kt
시정: 5000m
고도 1500ft 상공 구름 조금
고도 2000ft 상공 구름 조금, 적란운.
고도 2500ft 상공 구름 많음
뇌우, 비
확률 40%
09일 13시부터 10일 06시까지 (UTC)
시정: 7000m
고도 2000ft 상공 구름 조금, 타워링 적운.
고도 2500ft 상공 구름 많음

TAF: LLBG 090507Z 0906/1006 19012KT 9999 SCT030 TEMPO 0906/0913 24012G22KT 5000 TSRA FEW015 FEW020CB BKN025 PROB40 0913/1006 7000 RA FEW020TCU BKN025 TX18/0912Z TN13/1004Z

4,000개 이상의 공항 관측 자료 및 예보 (METAR 및 TAF 보고).

지도상에서 검색 가능한 기상관측소가 노란 점과 빨간 점으로 표시되어 있습니다.

기상관측소 명을 보려면 표시 위로 마우스를 이동하세요.

날씨 관측과 예보를 보려면 클릭하세요.

지도 변경 : 확대하려면 엑스 표시가 있는 녹색 버튼, 축소하려면 빼기 표시가 있는 녹색 버튼, 다음 페이지의 지도를 보려면 녹색 화살표를 클릭하세요.


METAR-TAF: